sensor_id;sensor_type;location;lat;lon;timestamp;P1;durP1;ratioP1;P2;durP2;ratioP2
54121;SDS011;40029;58.708;50.190;2024-03-08T00:02:01;1.80;;;0.90;;
54121;SDS011;40029;58.708;50.190;2024-03-08T00:04:32;0.55;;;0.47;;
54121;SDS011;40029;58.708;50.190;2024-03-08T00:07:04;1.73;;;0.90;;
54121;SDS011;40029;58.708;50.190;2024-03-08T00:09:35;2.78;;;0.73;;
54121;SDS011;40029;58.708;50.190;2024-03-08T00:12:07;1.85;;;0.90;;
54121;SDS011;40029;58.708;50.190;2024-03-08T00:14:38;2.20;;;1.10;;
54121;SDS011;40029;58.708;50.190;2024-03-08T00:17:09;1.23;;;0.77;;
54121;SDS011;40029;58.708;50.190;2024-03-08T00:19:40;1.52;;;0.77;;
54121;SDS011;40029;58.708;50.190;2024-03-08T00:22:12;1.80;;;0.85;;
54121;SDS011;40029;58.708;50.190;2024-03-08T00:24:43;2.42;;;1.10;;
54121;SDS011;40029;58.708;50.190;2024-03-08T00:27:14;2.97;;;1.00;;
54121;SDS011;40029;58.708;50.190;2024-03-08T00:29:46;1.77;;;1.15;;
54121;SDS011;40029;58.708;50.190;2024-03-08T00:32:18;2.25;;;1.52;;
54121;SDS011;40029;58.708;50.190;2024-03-08T00:35:08;1.85;;;1.20;;
54121;SDS011;40029;58.708;50.190;2024-03-08T00:37:39;2.15;;;0.90;;
54121;SDS011;40029;58.708;50.190;2024-03-08T00:40:10;1.35;;;0.73;;
54121;SDS011;40029;58.708;50.190;2024-03-08T00:42:42;2.58;;;0.88;;
54121;SDS011;40029;58.708;50.190;2024-03-08T00:45:14;1.95;;;1.20;;
54121;SDS011;40029;58.708;50.190;2024-03-08T00:47:45;1.80;;;1.02;;
54121;SDS011;40029;58.708;50.190;2024-03-08T00:50:16;1.83;;;0.90;;
54121;SDS011;40029;58.708;50.190;2024-03-08T00:52:48;1.08;;;0.80;;
54121;SDS011;40029;58.708;50.190;2024-03-08T00:55:20;2.22;;;0.95;;
54121;SDS011;40029;58.708;50.190;2024-03-08T00:57:51;1.75;;;0.90;;
54121;SDS011;40029;58.708;50.190;2024-03-08T01:00:24;1.83;;;0.90;;
54121;SDS011;40029;58.708;50.190;2024-03-08T01:02:56;3.00;;;0.98;;
54121;SDS011;40029;58.708;50.190;2024-03-08T01:05:27;0.77;;;0.70;;
54121;SDS011;40029;58.708;50.190;2024-03-08T01:07:58;4.38;;;1.25;;
54121;SDS011;40029;58.708;50.190;2024-03-08T01:10:29;2.17;;;0.85;;
54121;SDS011;40029;58.708;50.190;2024-03-08T01:13:00;2.08;;;0.90;;
54121;SDS011;40029;58.708;50.190;2024-03-08T01:15:32;3.35;;;1.42;;
54121;SDS011;40029;58.708;50.190;2024-03-08T01:18:03;3.67;;;1.50;;
54121;SDS011;40029;58.708;50.190;2024-03-08T01:20:54;1.55;;;0.88;;
54121;SDS011;40029;58.708;50.190;2024-03-08T01:23:25;6.00;;;1.85;;
54121;SDS011;40029;58.708;50.190;2024-03-08T01:25:56;2.08;;;1.25;;
54121;SDS011;40029;58.708;50.190;2024-03-08T01:28:27;2.92;;;1.45;;
54121;SDS011;40029;58.708;50.190;2024-03-08T01:30:58;1.40;;;0.98;;
54121;SDS011;40029;58.708;50.190;2024-03-08T01:33:30;2.00;;;0.98;;
54121;SDS011;40029;58.708;50.190;2024-03-08T01:36:02;2.40;;;1.35;;
54121;SDS011;40029;58.708;50.190;2024-03-08T01:38:33;4.85;;;1.58;;
54121;SDS011;40029;58.708;50.190;2024-03-08T01:41:05;2.63;;;1.20;;
54121;SDS011;40029;58.708;50.190;2024-03-08T01:43:36;2.72;;;1.08;;
54121;SDS011;40029;58.708;50.190;2024-03-08T01:46:07;3.22;;;1.23;;
54121;SDS011;40029;58.708;50.190;2024-03-08T01:48:40;3.28;;;1.25;;
54121;SDS011;40029;58.708;50.190;2024-03-08T01:51:13;1.35;;;0.85;;
54121;SDS011;40029;58.708;50.190;2024-03-08T01:53:46;1.65;;;0.95;;
54121;SDS011;40029;58.708;50.190;2024-03-08T01:56:19;1.27;;;0.85;;
54121;SDS011;40029;58.708;50.190;2024-03-08T01:58:50;1.58;;;0.90;;
54121;SDS011;40029;58.708;50.190;2024-03-08T02:01:23;1.27;;;0.90;;
54121;SDS011;40029;58.708;50.190;2024-03-08T02:03:55;3.05;;;0.60;;
54121;SDS011;40029;58.708;50.190;2024-03-08T02:06:26;3.60;;;1.10;;
54121;SDS011;40029;58.708;50.190;2024-03-08T02:08:58;1.20;;;0.60;;
54121;SDS011;40029;58.708;50.190;2024-03-08T02:11:30;3.90;;;0.80;;
54121;SDS011;40029;58.708;50.190;2024-03-08T02:14:01;1.30;;;0.70;;
54121;SDS011;40029;58.708;50.190;2024-03-08T02:16:32;0.85;;;0.60;;
54121;SDS011;40029;58.708;50.190;2024-03-08T02:19:04;1.88;;;1.00;;
54121;SDS011;40029;58.708;50.190;2024-03-08T02:21:35;1.80;;;0.77;;
54121;SDS011;40029;58.708;50.190;2024-03-08T02:24:07;1.80;;;0.80;;
54121;SDS011;40029;58.708;50.190;2024-03-08T02:26:39;1.85;;;0.88;;
54121;SDS011;40029;58.708;50.190;2024-03-08T02:29:28;2.08;;;0.70;;
54121;SDS011;40029;58.708;50.190;2024-03-08T02:32:01;2.13;;;0.95;;
54121;SDS011;40029;58.708;50.190;2024-03-08T02:34:32;3.20;;;0.88;;
54121;SDS011;40029;58.708;50.190;2024-03-08T02:37:03;1.75;;;1.20;;
54121;SDS011;40029;58.708;50.190;2024-03-08T02:39:34;2.45;;;0.77;;
54121;SDS011;40029;58.708;50.190;2024-03-08T02:42:06;2.13;;;0.60;;
54121;SDS011;40029;58.708;50.190;2024-03-08T02:44:38;1.70;;;0.50;;
54121;SDS011;40029;58.708;50.190;2024-03-08T02:47:14;1.30;;;0.82;;
54121;SDS011;40029;58.708;50.190;2024-03-08T02:49:46;1.65;;;0.60;;
54121;SDS011;40029;58.708;50.190;2024-03-08T02:52:17;1.20;;;0.75;;
54121;SDS011;40029;58.708;50.190;2024-03-08T02:54:48;1.38;;;0.77;;
54121;SDS011;40029;58.708;50.190;2024-03-08T02:57:39;0.70;;;0.47;;
54121;SDS011;40029;58.708;50.190;2024-03-08T03:00:10;0.75;;;0.40;;
54121;SDS011;40029;58.708;50.190;2024-03-08T03:02:41;1.08;;;0.77;;
54121;SDS011;40029;58.708;50.190;2024-03-08T03:05:13;3.55;;;0.77;;
54121;SDS011;40029;58.708;50.190;2024-03-08T03:07:44;1.80;;;0.90;;
54121;SDS011;40029;58.708;50.190;2024-03-08T03:10:19;2.22;;;1.00;;
54121;SDS011;40029;58.708;50.190;2024-03-08T03:12:52;2.00;;;1.23;;
54121;SDS011;40029;58.708;50.190;2024-03-08T03:15:24;3.42;;;1.92;;
54121;SDS011;40029;58.708;50.190;2024-03-08T03:17:55;7.00;;;2.00;;
54121;SDS011;40029;58.708;50.190;2024-03-08T03:20:45;8.00;;;2.88;;
54121;SDS011;40029;58.708;50.190;2024-03-08T03:23:16;7.18;;;2.63;;
54121;SDS011;40029;58.708;50.190;2024-03-08T03:25:51;12.20;;;4.13;;
54121;SDS011;40029;58.708;50.190;2024-03-08T03:28:23;24.50;;;7.93;;
54121;SDS011;40029;58.708;50.190;2024-03-08T03:30:54;19.10;;;6.18;;
54121;SDS011;40029;58.708;50.190;2024-03-08T03:33:29;19.55;;;6.63;;
54121;SDS011;40029;58.708;50.190;2024-03-08T03:36:00;9.50;;;4.05;;
54121;SDS011;40029;58.708;50.190;2024-03-08T03:38:32;10.77;;;4.55;;
54121;SDS011;40029;58.708;50.190;2024-03-08T03:41:05;6.45;;;3.78;;
54121;SDS011;40029;58.708;50.190;2024-03-08T03:43:40;9.20;;;3.55;;
54121;SDS011;40029;58.708;50.190;2024-03-08T03:46:13;6.18;;;1.35;;
54121;SDS011;40029;58.708;50.190;2024-03-08T03:48:44;5.13;;;1.70;;
54121;SDS011;40029;58.708;50.190;2024-03-08T03:51:15;9.75;;;4.15;;
54121;SDS011;40029;58.708;50.190;2024-03-08T03:53:46;2.75;;;1.38;;
54121;SDS011;40029;58.708;50.190;2024-03-08T03:56:18;3.53;;;1.48;;
54121;SDS011;40029;58.708;50.190;2024-03-08T03:58:49;6.28;;;1.92;;
54121;SDS011;40029;58.708;50.190;2024-03-08T04:01:22;10.88;;;3.42;;
54121;SDS011;40029;58.708;50.190;2024-03-08T04:03:53;19.50;;;6.80;;
54121;SDS011;40029;58.708;50.190;2024-03-08T04:06:43;16.98;;;4.15;;
54121;SDS011;40029;58.708;50.190;2024-03-08T04:09:15;16.10;;;5.85;;
54121;SDS011;40029;58.708;50.190;2024-03-08T04:11:49;14.32;;;4.82;;
54121;SDS011;40029;58.708;50.190;2024-03-08T04:14:23;7.88;;;2.65;;
54121;SDS011;40029;58.708;50.190;2024-03-08T04:16:54;6.20;;;2.67;;
54121;SDS011;40029;58.708;50.190;2024-03-08T04:19:26;3.88;;;1.95;;
54121;SDS011;40029;58.708;50.190;2024-03-08T04:21:58;6.63;;;1.95;;
54121;SDS011;40029;58.708;50.190;2024-03-08T04:24:31;3.17;;;1.27;;
54121;SDS011;40029;58.708;50.190;2024-03-08T04:27:02;3.63;;;1.63;;
54121;SDS011;40029;58.708;50.190;2024-03-08T04:29:35;14.07;;;3.92;;
54121;SDS011;40029;58.708;50.190;2024-03-08T04:32:07;10.85;;;3.45;;
54121;SDS011;40029;58.708;50.190;2024-03-08T04:34:39;6.57;;;3.38;;
54121;SDS011;40029;58.708;50.190;2024-03-08T04:37:11;3.78;;;2.17;;
54121;SDS011;40029;58.708;50.190;2024-03-08T04:39:44;5.22;;;2.58;;
54121;SDS011;40029;58.708;50.190;2024-03-08T04:42:15;7.05;;;1.85;;
54121;SDS011;40029;58.708;50.190;2024-03-08T04:44:49;8.35;;;2.63;;
54121;SDS011;40029;58.708;50.190;2024-03-08T04:47:20;15.07;;;4.40;;
54121;SDS011;40029;58.708;50.190;2024-03-08T04:49:51;4.05;;;1.50;;
54121;SDS011;40029;58.708;50.190;2024-03-08T04:52:22;5.05;;;1.90;;
54121;SDS011;40029;58.708;50.190;2024-03-08T04:54:54;2.83;;;1.42;;
54121;SDS011;40029;58.708;50.190;2024-03-08T04:57:25;2.75;;;1.20;;
54121;SDS011;40029;58.708;50.190;2024-03-08T04:59:56;6.80;;;2.05;;
54121;SDS011;40029;58.708;50.190;2024-03-08T05:02:29;1.60;;;0.82;;
54121;SDS011;40029;58.708;50.190;2024-03-08T05:05:00;5.28;;;1.48;;
54121;SDS011;40029;58.708;50.190;2024-03-08T05:07:31;3.33;;;1.17;;
54121;SDS011;40029;58.708;50.190;2024-03-08T05:10:03;2.30;;;1.23;;
54121;SDS011;40029;58.708;50.190;2024-03-08T05:12:35;1.77;;;0.60;;
54121;SDS011;40029;58.708;50.190;2024-03-08T05:15:06;1.10;;;0.50;;
54121;SDS011;40029;58.708;50.190;2024-03-08T05:17:38;1.38;;;0.65;;
54121;SDS011;40029;58.708;50.190;2024-03-08T05:20:11;1.05;;;0.60;;
54121;SDS011;40029;58.708;50.190;2024-03-08T05:23:02;0.85;;;0.50;;
54121;SDS011;40029;58.708;50.190;2024-03-08T05:25:34;1.35;;;0.68;;
54121;SDS011;40029;58.708;50.190;2024-03-08T05:28:05;1.92;;;0.82;;
54121;SDS011;40029;58.708;50.190;2024-03-08T05:30:37;4.35;;;1.13;;
54121;SDS011;40029;58.708;50.190;2024-03-08T05:33:09;1.92;;;1.27;;
54121;SDS011;40029;58.708;50.190;2024-03-08T05:35:41;4.78;;;1.70;;
54121;SDS011;40029;58.708;50.190;2024-03-08T05:38:12;13.75;;;3.97;;
54121;SDS011;40029;58.708;50.190;2024-03-08T05:40:43;16.50;;;5.55;;
54121;SDS011;40029;58.708;50.190;2024-03-08T05:43:14;11.23;;;4.30;;
54121;SDS011;40029;58.708;50.190;2024-03-08T05:45:48;3.17;;;1.60;;
54121;SDS011;40029;58.708;50.190;2024-03-08T05:48:19;4.88;;;3.05;;
54121;SDS011;40029;58.708;50.190;2024-03-08T05:50:50;4.78;;;1.63;;
54121;SDS011;40029;58.708;50.190;2024-03-08T05:53:21;7.38;;;3.05;;
54121;SDS011;40029;58.708;50.190;2024-03-08T05:55:53;6.80;;;4.03;;
54121;SDS011;40029;58.708;50.190;2024-03-08T05:58:24;2.55;;;1.23;;
54121;SDS011;40029;58.708;50.190;2024-03-08T06:00:56;7.85;;;2.88;;
54121;SDS011;40029;58.708;50.190;2024-03-08T06:03:27;1.35;;;0.90;;
54121;SDS011;40029;58.708;50.190;2024-03-08T06:05:58;6.97;;;2.63;;
54121;SDS011;40029;58.708;50.190;2024-03-08T06:08:29;7.93;;;2.20;;
54121;SDS011;40029;58.708;50.190;2024-03-08T06:11:01;4.53;;;1.55;;
54121;SDS011;40029;58.708;50.190;2024-03-08T06:13:33;14.23;;;3.72;;
54121;SDS011;40029;58.708;50.190;2024-03-08T06:16:04;4.00;;;0.90;;
54121;SDS011;40029;58.708;50.190;2024-03-08T06:18:35;6.53;;;1.55;;
54121;SDS011;40029;58.708;50.190;2024-03-08T06:21:07;1.27;;;0.50;;
54121;SDS011;40029;58.708;50.190;2024-03-08T06:23:42;4.80;;;1.33;;
54121;SDS011;40029;58.708;50.190;2024-03-08T06:26:32;0.90;;;0.50;;
54121;SDS011;40029;58.708;50.190;2024-03-08T06:29:03;3.63;;;0.88;;
54121;SDS011;40029;58.708;50.190;2024-03-08T06:31:37;1.90;;;1.30;;
54121;SDS011;40029;58.708;50.190;2024-03-08T06:34:09;1.63;;;0.73;;
54121;SDS011;40029;58.708;50.190;2024-03-08T06:37:00;3.10;;;1.15;;
54121;SDS011;40029;58.708;50.190;2024-03-08T06:39:32;3.17;;;0.80;;
54121;SDS011;40029;58.708;50.190;2024-03-08T06:42:05;1.48;;;0.50;;
54121;SDS011;40029;58.708;50.190;2024-03-08T06:44:36;0.82;;;0.60;;
54121;SDS011;40029;58.708;50.190;2024-03-08T06:47:09;2.60;;;0.90;;
54121;SDS011;40029;58.708;50.190;2024-03-08T06:49:40;2.85;;;1.00;;
54121;SDS011;40029;58.708;50.190;2024-03-08T06:52:11;3.38;;;1.40;;
54121;SDS011;40029;58.708;50.190;2024-03-08T06:55:01;1.67;;;0.50;;
54121;SDS011;40029;58.708;50.190;2024-03-08T07:00:07;2.30;;;0.90;;
54121;SDS011;40029;58.708;50.190;2024-03-08T07:02:44;2.58;;;1.10;;
54121;SDS011;40029;58.708;50.190;2024-03-08T07:05:24;3.08;;;1.00;;
54121;SDS011;40029;58.708;50.190;2024-03-08T07:07:56;1.85;;;1.13;;
54121;SDS011;40029;58.708;50.190;2024-03-08T07:10:27;3.92;;;1.30;;
54121;SDS011;40029;58.708;50.190;2024-03-08T07:12:59;1.55;;;1.30;;
54121;SDS011;40029;58.708;50.190;2024-03-08T07:15:32;1.02;;;0.55;;
54121;SDS011;40029;58.708;50.190;2024-03-08T07:18:04;3.30;;;1.75;;
54121;SDS011;40029;58.708;50.190;2024-03-08T07:20:35;2.70;;;1.30;;
54121;SDS011;40029;58.708;50.190;2024-03-08T07:23:07;8.48;;;3.28;;
54121;SDS011;40029;58.708;50.190;2024-03-08T07:25:39;3.22;;;1.67;;
54121;SDS011;40029;58.708;50.190;2024-03-08T07:28:10;3.40;;;1.52;;
54121;SDS011;40029;58.708;50.190;2024-03-08T07:31:00;1.83;;;1.30;;
54121;SDS011;40029;58.708;50.190;2024-03-08T07:33:50;1.60;;;0.90;;
54121;SDS011;40029;58.708;50.190;2024-03-08T07:36:21;1.48;;;0.70;;
54121;SDS011;40029;58.708;50.190;2024-03-08T07:38:53;1.48;;;0.60;;
54121;SDS011;40029;58.708;50.190;2024-03-08T07:41:43;1.02;;;0.60;;
54121;SDS011;40029;58.708;50.190;2024-03-08T07:44:14;1.05;;;0.68;;
54121;SDS011;40029;58.708;50.190;2024-03-08T07:46:45;0.55;;;0.40;;
54121;SDS011;40029;58.708;50.190;2024-03-08T07:49:16;0.85;;;0.50;;
54121;SDS011;40029;58.708;50.190;2024-03-08T07:51:47;1.27;;;0.68;;
54121;SDS011;40029;58.708;50.190;2024-03-08T07:54:19;1.00;;;0.60;;
54121;SDS011;40029;58.708;50.190;2024-03-08T07:56:50;0.65;;;0.50;;
54121;SDS011;40029;58.708;50.190;2024-03-08T07:59:22;0.98;;;0.65;;
54121;SDS011;40029;58.708;50.190;2024-03-08T08:01:53;2.13;;;1.08;;
54121;SDS011;40029;58.708;50.190;2024-03-08T08:04:24;4.57;;;2.40;;
54121;SDS011;40029;58.708;50.190;2024-03-08T08:06:55;2.10;;;0.80;;
54121;SDS011;40029;58.708;50.190;2024-03-08T08:09:27;1.83;;;0.50;;
54121;SDS011;40029;58.708;50.190;2024-03-08T08:12:05;1.02;;;0.43;;
54121;SDS011;40029;58.708;50.190;2024-03-08T08:14:38;1.52;;;0.50;;
54121;SDS011;40029;58.708;50.190;2024-03-08T08:17:09;1.30;;;0.77;;
54121;SDS011;40029;58.708;50.190;2024-03-08T08:19:41;2.08;;;0.82;;
54121;SDS011;40029;58.708;50.190;2024-03-08T08:22:12;1.58;;;0.75;;
54121;SDS011;40029;58.708;50.190;2024-03-08T08:24:43;5.45;;;2.55;;
54121;SDS011;40029;58.708;50.190;2024-03-08T08:27:14;4.20;;;1.15;;
54121;SDS011;40029;58.708;50.190;2024-03-08T08:29:45;1.08;;;0.60;;
54121;SDS011;40029;58.708;50.190;2024-03-08T08:32:16;1.10;;;0.73;;
54121;SDS011;40029;58.708;50.190;2024-03-08T08:34:49;1.40;;;0.75;;
54121;SDS011;40029;58.708;50.190;2024-03-08T08:37:20;4.03;;;1.63;;
54121;SDS011;40029;58.708;50.190;2024-03-08T08:39:51;2.15;;;1.20;;
54121;SDS011;40029;58.708;50.190;2024-03-08T08:42:23;1.70;;;1.00;;
54121;SDS011;40029;58.708;50.190;2024-03-08T08:44:55;1.50;;;0.70;;
54121;SDS011;40029;58.708;50.190;2024-03-08T08:47:28;2.05;;;0.60;;
54121;SDS011;40029;58.708;50.190;2024-03-08T08:49:59;1.23;;;0.82;;
54121;SDS011;40029;58.708;50.190;2024-03-08T08:52:32;2.50;;;1.38;;
54121;SDS011;40029;58.708;50.190;2024-03-08T08:55:21;2.67;;;1.10;;
54121;SDS011;40029;58.708;50.190;2024-03-08T08:57:56;3.13;;;1.05;;
54121;SDS011;40029;58.708;50.190;2024-03-08T09:00:28;1.63;;;0.82;;
54121;SDS011;40029;58.708;50.190;2024-03-08T09:03:02;3.67;;;2.53;;
54121;SDS011;40029;58.708;50.190;2024-03-08T09:05:33;5.00;;;1.38;;
54121;SDS011;40029;58.708;50.190;2024-03-08T09:08:04;1.88;;;1.17;;
54121;SDS011;40029;58.708;50.190;2024-03-08T09:10:36;4.43;;;1.38;;
54121;SDS011;40029;58.708;50.190;2024-03-08T09:13:07;1.02;;;0.70;;
54121;SDS011;40029;58.708;50.190;2024-03-08T09:15:40;1.02;;;0.93;;
54121;SDS011;40029;58.708;50.190;2024-03-08T09:18:12;1.35;;;0.73;;
54121;SDS011;40029;58.708;50.190;2024-03-08T09:20:43;4.20;;;2.13;;
54121;SDS011;40029;58.708;50.190;2024-03-08T09:23:14;1.77;;;0.98;;
54121;SDS011;40029;58.708;50.190;2024-03-08T09:26:06;3.63;;;1.52;;
54121;SDS011;40029;58.708;50.190;2024-03-08T09:28:39;1.67;;;0.90;;
54121;SDS011;40029;58.708;50.190;2024-03-08T09:31:11;1.75;;;1.05;;
54121;SDS011;40029;58.708;50.190;2024-03-08T09:33:42;0.95;;;0.60;;
54121;SDS011;40029;58.708;50.190;2024-03-08T09:36:14;0.52;;;0.47;;
54121;SDS011;40029;58.708;50.190;2024-03-08T09:38:45;1.42;;;0.70;;
54121;SDS011;40029;58.708;50.190;2024-03-08T09:41:16;9.15;;;3.60;;
54121;SDS011;40029;58.708;50.190;2024-03-08T09:43:48;2.90;;;1.52;;
54121;SDS011;40029;58.708;50.190;2024-03-08T09:46:19;1.55;;;0.57;;
54121;SDS011;40029;58.708;50.190;2024-03-08T09:49:11;0.68;;;0.47;;
54121;SDS011;40029;58.708;50.190;2024-03-08T09:51:43;0.80;;;0.60;;
54121;SDS011;40029;58.708;50.190;2024-03-08T09:54:34;9.88;;;3.55;;
54121;SDS011;40029;58.708;50.190;2024-03-08T09:57:05;13.25;;;5.38;;
54121;SDS011;40029;58.708;50.190;2024-03-08T09:59:39;5.63;;;2.25;;
54121;SDS011;40029;58.708;50.190;2024-03-08T10:02:12;6.07;;;2.33;;
54121;SDS011;40029;58.708;50.190;2024-03-08T10:04:45;4.20;;;1.98;;
54121;SDS011;40029;58.708;50.190;2024-03-08T10:07:17;1.90;;;0.90;;
54121;SDS011;40029;58.708;50.190;2024-03-08T10:09:51;4.35;;;2.03;;
54121;SDS011;40029;58.708;50.190;2024-03-08T10:12:22;3.15;;;2.20;;
54121;SDS011;40029;58.708;50.190;2024-03-08T10:14:55;2.75;;;1.38;;
54121;SDS011;40029;58.708;50.190;2024-03-08T10:17:27;2.40;;;1.40;;
54121;SDS011;40029;58.708;50.190;2024-03-08T10:20:03;6.43;;;2.45;;
54121;SDS011;40029;58.708;50.190;2024-03-08T10:22:45;6.63;;;3.33;;
54121;SDS011;40029;58.708;50.190;2024-03-08T10:25:17;3.67;;;2.20;;
54121;SDS011;40029;58.708;50.190;2024-03-08T10:27:49;6.72;;;3.45;;
54121;SDS011;40029;58.708;50.190;2024-03-08T10:30:20;1.95;;;1.00;;
54121;SDS011;40029;58.708;50.190;2024-03-08T10:32:52;4.20;;;1.60;;
54121;SDS011;40029;58.708;50.190;2024-03-08T10:35:23;1.67;;;1.35;;
54121;SDS011;40029;58.708;50.190;2024-03-08T10:38:13;5.03;;;2.65;;
54121;SDS011;40029;58.708;50.190;2024-03-08T10:40:50;6.45;;;3.53;;
54121;SDS011;40029;58.708;50.190;2024-03-08T10:43:23;2.53;;;1.02;;
54121;SDS011;40029;58.708;50.190;2024-03-08T10:46:23;0.70;;;0.50;;
54121;SDS011;40029;58.708;50.190;2024-03-08T10:49:02;1.70;;;1.00;;
54121;SDS011;40029;58.708;50.190;2024-03-08T10:51:37;4.32;;;1.77;;
54121;SDS011;40029;58.708;50.190;2024-03-08T10:54:10;3.05;;;1.25;;
54121;SDS011;40029;58.708;50.190;2024-03-08T10:56:42;2.22;;;1.48;;
54121;SDS011;40029;58.708;50.190;2024-03-08T10:59:13;3.03;;;1.20;;
54121;SDS011;40029;58.708;50.190;2024-03-08T11:01:46;2.58;;;1.60;;
54121;SDS011;40029;58.708;50.190;2024-03-08T11:04:18;4.05;;;2.05;;
54121;SDS011;40029;58.708;50.190;2024-03-08T11:06:53;5.10;;;2.53;;
54121;SDS011;40029;58.708;50.190;2024-03-08T11:09:37;7.22;;;2.05;;
54121;SDS011;40029;58.708;50.190;2024-03-08T11:14:58;7.95;;;3.78;;
54121;SDS011;40029;58.708;50.190;2024-03-08T11:20:11;1.92;;;0.90;;
54121;SDS011;40029;58.708;50.190;2024-03-08T11:22:50;2.13;;;0.95;;
54121;SDS011;40029;58.708;50.190;2024-03-08T11:31:39;6.93;;;2.35;;
54121;SDS011;40029;58.708;50.190;2024-03-08T11:33:56;12.32;;;4.10;;
54121;SDS011;40029;58.708;50.190;2024-03-08T11:36:28;4.68;;;2.33;;
54121;SDS011;40029;58.708;50.190;2024-03-08T11:39:01;9.38;;;3.60;;
54121;SDS011;40029;58.708;50.190;2024-03-08T11:41:40;13.02;;;4.47;;
54121;SDS011;40029;58.708;50.190;2024-03-08T11:44:31;8.23;;;3.00;;
54121;SDS011;40029;58.708;50.190;2024-03-08T11:47:02;3.72;;;1.80;;
54121;SDS011;40029;58.708;50.190;2024-03-08T11:49:56;5.23;;;2.33;;
54121;SDS011;40029;58.708;50.190;2024-03-08T11:52:27;4.43;;;2.50;;
54121;SDS011;40029;58.708;50.190;2024-03-08T11:55:00;10.45;;;3.90;;
54121;SDS011;40029;58.708;50.190;2024-03-08T11:57:32;6.30;;;2.58;;
54121;SDS011;40029;58.708;50.190;2024-03-08T12:00:22;5.40;;;2.88;;
54121;SDS011;40029;58.708;50.190;2024-03-08T12:03:03;6.28;;;2.95;;
54121;SDS011;40029;58.708;50.190;2024-03-08T12:05:38;5.00;;;2.30;;
54121;SDS011;40029;58.708;50.190;2024-03-08T12:08:09;7.90;;;3.33;;
54121;SDS011;40029;58.708;50.190;2024-03-08T12:10:43;13.98;;;5.38;;
54121;SDS011;40029;58.708;50.190;2024-03-08T12:13:34;9.18;;;4.70;;
54121;SDS011;40029;58.708;50.190;2024-03-08T12:16:05;8.15;;;4.65;;
54121;SDS011;40029;58.708;50.190;2024-03-08T12:18:37;12.63;;;5.40;;
54121;SDS011;40029;58.708;50.190;2024-03-08T12:21:10;10.20;;;4.20;;
54121;SDS011;40029;58.708;50.190;2024-03-08T12:23:45;3.15;;;1.92;;
54121;SDS011;40029;58.708;50.190;2024-03-08T12:26:35;7.65;;;3.30;;
54121;SDS011;40029;58.708;50.190;2024-03-08T12:29:27;6.35;;;2.60;;
54121;SDS011;40029;58.708;50.190;2024-03-08T12:31:59;6.95;;;3.03;;
54121;SDS011;40029;58.708;50.190;2024-03-08T12:34:31;14.15;;;5.25;;
54121;SDS011;40029;58.708;50.190;2024-03-08T12:37:03;41.72;;;12.15;;
54121;SDS011;40029;58.708;50.190;2024-03-08T12:39:37;11.45;;;4.25;;
54121;SDS011;40029;58.708;50.190;2024-03-08T12:42:10;24.85;;;7.43;;
54121;SDS011;40029;58.708;50.190;2024-03-08T12:44:41;5.90;;;2.60;;
54121;SDS011;40029;58.708;50.190;2024-03-08T12:47:14;10.15;;;3.72;;
54121;SDS011;40029;58.708;50.190;2024-03-08T12:49:45;11.32;;;4.57;;
54121;SDS011;40029;58.708;50.190;2024-03-08T12:52:16;8.65;;;3.20;;
54121;SDS011;40029;58.708;50.190;2024-03-08T12:54:49;7.15;;;3.83;;
54121;SDS011;40029;58.708;50.190;2024-03-08T12:57:20;6.40;;;3.50;;
54121;SDS011;40029;58.708;50.190;2024-03-08T12:59:51;4.47;;;2.05;;
54121;SDS011;40029;58.708;50.190;2024-03-08T13:02:24;11.43;;;4.65;;
54121;SDS011;40029;58.708;50.190;2024-03-08T13:04:56;9.77;;;3.28;;
54121;SDS011;40029;58.708;50.190;2024-03-08T13:07:30;7.50;;;3.13;;
54121;SDS011;40029;58.708;50.190;2024-03-08T13:10:02;17.05;;;7.47;;
54121;SDS011;40029;58.708;50.190;2024-03-08T13:12:35;7.55;;;3.83;;
54121;SDS011;40029;58.708;50.190;2024-03-08T13:15:09;5.55;;;2.65;;
54121;SDS011;40029;58.708;50.190;2024-03-08T13:17:51;4.57;;;1.83;;
54121;SDS011;40029;58.708;50.190;2024-03-08T13:20:22;3.13;;;1.60;;
54121;SDS011;40029;58.708;50.190;2024-03-08T13:22:53;6.55;;;2.65;;
54121;SDS011;40029;58.708;50.190;2024-03-08T13:25:26;6.93;;;3.38;;
54121;SDS011;40029;58.708;50.190;2024-03-08T13:27:57;12.00;;;5.43;;
54121;SDS011;40029;58.708;50.190;2024-03-08T13:30:30;13.38;;;6.78;;
54121;SDS011;40029;58.708;50.190;2024-03-08T13:33:01;11.05;;;6.03;;
54121;SDS011;40029;58.708;50.190;2024-03-08T13:35:35;7.18;;;3.67;;
54121;SDS011;40029;58.708;50.190;2024-03-08T13:38:08;4.70;;;2.78;;
54121;SDS011;40029;58.708;50.190;2024-03-08T13:41:01;15.05;;;5.22;;
54121;SDS011;40029;58.708;50.190;2024-03-08T13:43:33;11.57;;;4.85;;
54121;SDS011;40029;58.708;50.190;2024-03-08T13:46:25;15.68;;;7.55;;
54121;SDS011;40029;58.708;50.190;2024-03-08T13:48:57;11.35;;;5.57;;
54121;SDS011;40029;58.708;50.190;2024-03-08T13:51:38;13.35;;;5.05;;
54121;SDS011;40029;58.708;50.190;2024-03-08T13:54:09;18.38;;;7.03;;
54121;SDS011;40029;58.708;50.190;2024-03-08T13:56:41;16.25;;;6.15;;
54121;SDS011;40029;58.708;50.190;2024-03-08T13:59:14;16.13;;;7.22;;
54121;SDS011;40029;58.708;50.190;2024-03-08T14:01:45;16.05;;;4.95;;
54121;SDS011;40029;58.708;50.190;2024-03-08T14:04:18;13.40;;;6.07;;
54121;SDS011;40029;58.708;50.190;2024-03-08T14:06:49;25.70;;;9.05;;
54121;SDS011;40029;58.708;50.190;2024-03-08T14:09:25;26.15;;;10.68;;
54121;SDS011;40029;58.708;50.190;2024-03-08T14:11:57;18.55;;;7.20;;
54121;SDS011;40029;58.708;50.190;2024-03-08T14:14:29;18.20;;;8.13;;
54121;SDS011;40029;58.708;50.190;2024-03-08T14:17:00;26.98;;;9.52;;
54121;SDS011;40029;58.708;50.190;2024-03-08T14:19:32;18.10;;;8.05;;
54121;SDS011;40029;58.708;50.190;2024-03-08T14:22:06;20.85;;;8.38;;
54121;SDS011;40029;58.708;50.190;2024-03-08T14:24:37;16.60;;;7.80;;
54121;SDS011;40029;58.708;50.190;2024-03-08T14:27:28;24.27;;;8.82;;
54121;SDS011;40029;58.708;50.190;2024-03-08T14:29:59;29.30;;;12.43;;
54121;SDS011;40029;58.708;50.190;2024-03-08T14:32:48;29.38;;;11.30;;
54121;SDS011;40029;58.708;50.190;2024-03-08T14:35:20;31.67;;;11.27;;
54121;SDS011;40029;58.708;50.190;2024-03-08T14:37:51;43.35;;;14.77;;
54121;SDS011;40029;58.708;50.190;2024-03-08T14:40:23;34.22;;;11.00;;
54121;SDS011;40029;58.708;50.190;2024-03-08T14:42:56;37.97;;;12.25;;
54121;SDS011;40029;58.708;50.190;2024-03-08T14:45:27;36.35;;;13.15;;
54121;SDS011;40029;58.708;50.190;2024-03-08T14:47:59;38.80;;;13.13;;
54121;SDS011;40029;58.708;50.190;2024-03-08T14:50:30;35.75;;;12.48;;
54121;SDS011;40029;58.708;50.190;2024-03-08T14:53:22;31.70;;;11.52;;
54121;SDS011;40029;58.708;50.190;2024-03-08T14:55:53;33.05;;;11.00;;
54121;SDS011;40029;58.708;50.190;2024-03-08T14:58:25;30.58;;;11.30;;
54121;SDS011;40029;58.708;50.190;2024-03-08T15:01:17;71.60;;;24.80;;
54121;SDS011;40029;58.708;50.190;2024-03-08T15:03:53;37.80;;;12.50;;
54121;SDS011;40029;58.708;50.190;2024-03-08T15:06:24;31.17;;;12.05;;
54121;SDS011;40029;58.708;50.190;2024-03-08T15:08:55;58.40;;;20.85;;
54121;SDS011;40029;58.708;50.190;2024-03-08T15:11:28;63.42;;;23.60;;
54121;SDS011;40029;58.708;50.190;2024-03-08T15:14:00;107.13;;;37.25;;
54121;SDS011;40029;58.708;50.190;2024-03-08T15:16:31;106.82;;;33.13;;
54121;SDS011;40029;58.708;50.190;2024-03-08T15:19:21;91.72;;;30.90;;
54121;SDS011;40029;58.708;50.190;2024-03-08T15:21:52;75.82;;;28.48;;
54121;SDS011;40029;58.708;50.190;2024-03-08T15:24:45;75.97;;;26.30;;